Time;durP1;ratioP1;P1;durP2;ratioP2;P2;SDS_P1;SDS_P2;PMS_P1;PMS_P2;Temp;Humidity;BMP_temperature;BMP_pressure;BME280_temperature;BME280_humidity;BME280_pressure;Samples;Min_cycle;Max_cycle;Signal;HPM_P1;HPM_P2
2021/06/17 00:01:12;;;;;;;4.93;4.53;;;;;;;21.85;67.32;94628.22;828539;71;31987;-84
2021/06/17 00:16:09;;;;;;;5.33;4.93;;;;;;;21.57;67.20;94619.37;828375;71;29840;-83
2021/06/17 00:31:09;;;;;;;4.00;3.70;;;;;;;21.37;68.99;94614.59;828424;71;30363;-85
2021/06/17 00:46:14;;;;;;;4.67;4.37;;;;;;;21.93;66.38;94602.59;827819;71;32694;-82
2021/06/17 01:01:15;;;;;;;4.37;4.07;;;;;;;22.09;64.99;94587.76;827641;71;33227;-83
2021/06/17 01:16:20;;;;;;;4.30;4.00;;;;;;;22.15;64.22;94577.54;828470;71;30291;-81
2021/06/17 01:31:17;;;;;;;5.60;5.10;;;;;;;22.12;63.74;94572.36;834241;71;29824;-82
2021/06/17 01:46:15;;;;;;;5.33;4.93;;;;;;;22.10;63.39;94569.81;828623;71;32480;-83
2021/06/17 02:01:08;;;;;;;5.87;5.40;;;;;;;22.05;62.83;94562.88;829910;71;29796;-79
2021/06/17 02:16:16;;;;;;;5.40;5.00;;;;;;;21.99;62.37;94561.07;828927;71;32687;-83
2021/06/17 02:31:16;;;;;;;5.77;5.27;;;;;;;21.93;61.93;94567.09;828038;71;33125;-83
2021/06/17 02:46:18;;;;;;;5.00;4.60;;;;;;;21.89;61.33;94569.70;827885;71;33159;-81
2021/06/17 03:16:18;;;;;;;4.87;4.57;;;;;;;21.90;60.53;94573.16;834241;71;32733;-85
2021/06/17 03:31:19;;;;;;;4.97;4.53;;;;;;;22.14;59.50;94581.33;827677;71;33224;-85
2021/06/17 03:46:14;;;;;;;5.80;5.40;;;;;;;22.50;58.32;94600.02;828389;71;30291;-84
2021/06/17 04:01:11;;;;;;;6.27;5.67;;;;;;;22.21;59.50;94605.50;828513;71;30342;-83
2021/06/17 04:16:22;;;;;;;6.43;5.83;;;;;;;23.03;59.00;94613.15;834386;71;33140;-87
2021/06/17 04:31:16;;;;;;;7.90;7.30;;;;;;;23.37;58.82;94625.40;827573;71;32678;-84
2021/06/17 04:46:47;;;;;;;10.07;9.20;;;;;;;23.49;60.73;94631.08;804282;73;33564;-84
2021/06/17 05:01:55;;;;;;;;;;;;;;;;;;;;;
2021/06/17 05:16:16;;;;;;;9.93;9.03;;;;;;;25.71;54.79;94634.45;828694;71;32773;-84
2021/06/17 05:31:14;;;;;;;11.20;9.90;;;;;;;25.45;54.09;94646.29;834477;71;32699;-84
2021/06/17 05:46:16;;;;;;;10.80;9.73;;;;;;;23.96;58.10;94677.88;827869;71;32758;-85
2021/06/17 06:01:16;;;;;;;11.63;10.63;;;;;;;23.32;60.32;94690.01;828592;71;33290;-86
2021/06/17 06:16:09;;;;;;;13.60;12.20;;;;;;;22.33;64.14;94688.80;827915;70;29734;-85
2021/06/17 06:31:16;;;;;;;12.67;11.57;;;;;;;23.20;62.03;94683.55;829340;70;32758;-85
2021/06/17 06:46:36;;;;;;;12.20;11.03;;;;;;;24.11;60.49;94677.46;834462;71;32795;-86
2021/06/17 07:01:20;;;;;;;14.53;12.97;;;;;;;25.18;56.76;94677.99;827965;71;32734;-84
2021/06/17 07:16:08;;;;;;;9.57;8.77;;;;;;;25.94;54.53;94680.42;831721;70;29679;-82
2021/06/17 07:31:08;;;;;;;8.70;7.90;;;;;;;;;;829218;71;29278;-85
2021/06/17 07:46:08;;;;;;;7.40;6.73;;;;;;;28.96;47.03;94681.37;828631;71;29247;-84
2021/06/17 08:01:24;;;;;;;12.00;11.00;;;;;;;29.79;43.16;94667.70;834119;71;31751;-87
2021/06/17 08:16:08;;;;;;;12.93;11.83;;;;;;;30.60;40.87;94669.59;831030;71;28735;-85
2021/06/17 08:31:15;;;;;;;18.67;16.87;;;;;;;30.88;39.72;94666.22;828936;71;31770;-85
2021/06/17 08:46:12;;;;;;;12.00;11.10;;;;;;;31.79;39.01;94659.97;829708;71;29545;-85
2021/06/17 09:16:23;;;;;;;9.40;8.50;;;;;;;32.90;34.47;94638.94;835153;71;30027;-85
2021/06/17 09:31:21;;;;;;;9.00;8.30;;;;;;;33.31;32.65;94615.12;828314;71;30132;-85
2021/06/17 09:46:15;;;;;;;7.33;6.83;;;;;;;33.67;31.50;94608.62;834242;71;30765;-86
2021/06/17 10:01:18;;;;;;;7.20;6.60;;;;;;;33.77;30.96;94601.95;829794;70;30749;-85
2021/06/17 10:16:17;;;;;;;6.60;6.10;;;;;;;33.62;30.85;94587.41;828442;71;30186;-86
2021/06/17 10:31:11;;;;;;;6.07;5.57;;;;;;;33.71;31.08;94581.30;824085;71;29320;-84
2021/06/17 10:46:17;;;;;;;5.00;4.70;;;;;;;33.16;30.54;94567.74;829814;71;31300;-84
2021/06/17 11:01:44;;;;;;;4.73;4.43;;;;;;;32.42;30.41;94547.58;822947;71;32799;-85
2021/06/17 11:16:18;;;;;;;4.80;4.50;;;;;;;31.12;31.50;94538.94;822122;71;30395;-85
2021/06/17 11:31:09;;;;;;;5.00;4.60;;;;;;;31.92;30.36;94530.55;835484;71;30363;-84
2021/06/17 11:46:23;;;;;;;5.80;5.40;;;;;;;31.43;30.97;94521.02;829488;70;32797;-85
2021/06/17 12:01:09;;;;;;;5.70;5.30;;;;;;;31.65;32.77;94521.33;834632;71;29789;-86
2021/06/17 12:16:17;;;;;;;5.30;4.90;;;;;;;28.33;39.20;94510.88;834190;71;32752;-86
2021/06/17 12:31:18;;;;;;;5.57;5.17;;;;;;;27.99;40.12;94504.67;827834;71;32675;-85
2021/06/17 12:46:11;;;;;;;4.90;4.50;;;;;;;28.47;38.91;94491.66;828542;71;30156;-85
2021/06/17 13:01:08;;;;;;;4.70;4.40;;;;;;;29.02;37.46;94497.95;828616;71;29694;-84
2021/06/17 13:16:18;;;;;;;6.27;5.83;;;;;;;28.25;45.34;94511.36;828448;71;30343;-85
2021/06/17 13:31:27;;;;;;;7.30;6.70;;;;;;;27.20;51.75;94506.56;828865;71;30638;-82
2021/06/17 13:46:32;;;;;;;6.03;5.50;;;;;;;26.17;55.50;94521.34;831054;71;33195;-87
2021/06/17 14:01:13;;;;;;;6.50;5.23;;;;;;;25.06;54.48;94524.70;828477;71;29808;-84
2021/06/17 14:16:15;;;;;;;5.73;5.23;;;;;;;24.88;55.97;94503.72;835841;70;30364;-87
2021/06/17 14:31:15;;;;;;;6.67;6.00;;;;;;;24.94;56.92;94493.59;836177;71;32554;-84
2021/06/17 14:46:12;;;;;;;5.87;5.47;;;;;;;25.54;54.07;94515.59;830218;70;30351;-82
2021/06/17 15:16:10;;;;;;;4.37;4.07;;;;;;;22.72;59.41;94570.31;834880;71;31266;-79
2021/06/17 15:31:14;;;;;;;5.43;4.93;;;;;;;22.47;63.47;94587.39;835230;71;32499;-78
2021/06/17 15:46:15;;;;;;;6.10;5.60;;;;;;;22.34;63.05;94568.66;834740;71;33270;-78
2021/06/17 16:01:16;;;;;;;6.80;6.30;;;;;;;22.85;66.18;94563.39;827731;71;32784;-77
2021/06/17 16:16:15;;;;;;;7.70;6.57;;;;;;;22.73;68.00;94568.41;834236;71;33464;-78
2021/06/17 16:31:09;;;;;;;10.50;9.40;;;;;;;22.74;64.91;94600.16;828739;71;30343;-79
2021/06/17 16:46:17;;;;;;;8.07;7.40;;;;;;;22.70;66.32;94614.05;834390;71;32740;-84
2021/06/17 17:01:15;;;;;;;7.60;6.90;;;;;;;23.18;65.19;94620.99;829184;71;32725;-82
2021/06/17 17:16:08;;;;;;;7.50;6.83;;;;;;;22.79;65.19;94657.37;828493;71;29867;-78
2021/06/17 17:31:29;;;;;;;8.30;7.60;;;;;;;22.19;66.90;94687.96;830191;71;32871;-80
2021/06/17 17:46:13;;;;;;;8.47;7.60;;;;;;;22.22;71.65;94723.32;834208;71;32607;-76
2021/06/17 18:01:09;;;;;;;8.40;7.50;;;;;;;23.12;69.83;94744.83;828957;71;30283;-77
2021/06/17 18:16:37;;;;;;;6.87;6.30;;;;;;;23.24;63.90;94722.43;829931;71;30408;-85
2021/06/17 18:31:22;;;;;;;10.53;8.73;;;;;;;22.05;64.69;94669.02;835477;71;31720;-91
2021/06/17 18:46:23;;;;;;;7.43;6.83;;;;;;;21.76;65.62;94713.38;829812;71;31804;-88
2021/06/17 19:32:02;;;;;;;;;;;;;;;;;;;;;
2021/06/17 19:46:45;;;;;;;7.28;6.58;;;;;;;20.53;70.78;94761.22;852243;68;31845;-89
2021/06/17 20:01:23;;;;;;;12.47;8.70;;;;;;;19.95;73.01;94757.69;801207;74;31952;-87
2021/06/17 20:16:31;;;;;;;8.00;7.20;;;;;;;19.66;74.51;94750.02;829461;70;31698;-87
2021/06/17 20:31:21;;;;;;;;;;;;;;;;;;;;;
2021/06/17 20:46:11;;;;;;;10.60;9.50;;;;;;;19.49;75.27;94740.44;828867;71;29358;-86
2021/06/17 21:16:15;;;;;;;9.80;7.20;;;;;;;19.38;74.57;94718.30;795173;72;31496;-86
2021/06/17 21:31:18;;;;;;;7.10;6.50;;;;;;;19.26;74.98;94712.22;835465;71;31831;-87
2021/06/17 21:46:24;;;;;;;8.80;8.00;;;;;;;19.13;75.34;94696.85;829259;71;32294;-86
2021/06/17 22:01:10;;;;;;;7.62;7.00;;;;;;;18.97;75.04;94689.56;835194;71;28634;-84
2021/06/17 22:16:23;;;;;;;;;;;;;;;;;;;;;
